createdAt,value
2023-11-07T00:00:31.728Z,81.88
2023-11-07T00:10:55.093Z,82.03
2023-11-07T00:20:58.682Z,82.01
2023-11-07T00:31:02.076Z,82.13
2023-11-07T00:41:05.770Z,82.38
2023-11-07T00:51:12.817Z,82.73
2023-11-07T01:01:20.153Z,82.53
2023-11-07T01:11:23.503Z,82.46
2023-11-07T01:21:27.175Z,82.74
2023-11-07T01:31:30.748Z,83.04
2023-11-07T01:41:34.288Z,83.21
2023-11-07T01:51:37.490Z,83.12
2023-11-07T02:01:44.412Z,83.20
2023-11-07T02:11:48.078Z,83.24
2023-11-07T02:21:51.503Z,82.93
2023-11-07T02:31:55.113Z,82.84
2023-11-07T02:41:58.443Z,82.91
2023-11-07T02:52:01.885Z,82.83
2023-11-07T03:02:05.622Z,82.89
2023-11-07T03:12:09.891Z,82.72
2023-11-07T03:22:13.497Z,82.49
2023-11-07T03:32:17.241Z,82.42
2023-11-07T03:42:20.608Z,82.78
2023-11-07T03:52:24.050Z,82.75
2023-11-07T04:02:27.378Z,82.80
2023-11-07T04:12:30.551Z,82.62
2023-11-07T04:22:33.957Z,82.71
2023-11-07T04:32:39.086Z,82.96
2023-11-07T04:42:42.594Z,82.92
2023-11-07T04:52:46.160Z,82.85
2023-11-07T05:02:50.211Z,82.78
2023-11-07T05:12:53.918Z,83.14
2023-11-07T05:22:57.312Z,83.43
2023-11-07T05:33:00.245Z,83.69
2023-11-07T05:43:04.230Z,83.94
2023-11-07T05:53:07.724Z,84.17
2023-11-07T06:03:11.597Z,84.50
2023-11-07T06:13:15.846Z,84.61
2023-11-07T06:23:18.922Z,84.84
2023-11-07T06:33:22.567Z,85.15
2023-11-07T06:43:26.497Z,85.44
2023-11-07T06:53:30.794Z,85.47
2023-11-07T07:03:34.581Z,85.64
2023-11-07T07:13:38.037Z,86.26
2023-11-07T07:23:41.649Z,85.98
2023-11-07T07:33:45.546Z,84.99
2023-11-07T07:43:48.463Z,83.43
2023-11-07T07:53:53.859Z,81.71
2023-11-07T08:03:56.681Z,79.57
2023-11-07T08:14:00.713Z,77.77
2023-11-07T08:24:04.366Z,74.55
2023-11-07T08:34:08.101Z,74.03
2023-11-07T08:44:11.878Z,73.92
2023-11-07T08:54:15.395Z,73.57
2023-11-07T09:04:19.035Z,72.73
2023-11-07T09:14:22.592Z,71.82
2023-11-07T09:24:26.210Z,71.43
2023-11-07T09:34:30.169Z,71.11
2023-11-07T09:44:36.131Z,71.11
2023-11-07T09:54:42.005Z,71.20
2023-11-07T10:04:46.573Z,71.28
2023-11-07T10:14:50.547Z,70.58
2023-11-07T10:24:54.601Z,69.81
2023-11-07T10:35:01.796Z,69.07
2023-11-07T10:45:10.794Z,68.63
2023-11-07T10:55:14.028Z,67.90
2023-11-07T11:05:18.186Z,67.77
2023-11-07T11:15:23.651Z,66.82
2023-11-07T11:25:32.678Z,66.29
2023-11-07T11:35:38.836Z,65.89
2023-11-07T11:45:46.923Z,64.27
2023-11-07T11:56:09.730Z,65.45
2023-11-07T12:06:13.906Z,65.35
2023-11-07T12:16:17.248Z,64.72
2023-11-07T12:26:21.823Z,65.11
2023-11-07T12:36:25.305Z,64.43
2023-11-07T12:46:31.529Z,64.02
2023-11-07T12:56:40.903Z,64.27
2023-11-07T13:06:56.644Z,64.58
2023-11-07T13:17:00.059Z,64.76
2023-11-07T13:27:03.146Z,64.51
2023-11-07T13:37:06.168Z,63.36
2023-11-07T13:47:10.679Z,62.96
2023-11-07T13:57:14.568Z,63.00
2023-11-07T14:07:18.791Z,63.43
2023-11-07T14:17:22.982Z,63.69
2023-11-07T14:27:26.646Z,64.25
2023-11-07T14:37:30.170Z,64.79
2023-11-07T14:47:34.398Z,65.29
2023-11-07T14:57:38.337Z,65.74
2023-11-07T15:07:42.322Z,66.10
2023-11-07T15:17:45.898Z,66.51
2023-11-07T15:27:51.470Z,67.05
2023-11-07T15:37:55.570Z,67.76
2023-11-07T15:47:59.307Z,68.28
2023-11-07T15:58:03.184Z,68.44
2023-11-07T16:08:07.510Z,68.88
2023-11-07T16:18:12.361Z,69.48
2023-11-07T16:28:16.533Z,69.88
2023-11-07T16:38:19.983Z,70.35
2023-11-07T16:48:24.743Z,71.10
2023-11-07T16:58:28.776Z,71.11
2023-11-07T17:08:32.445Z,71.37
2023-11-07T17:18:36.671Z,71.82
2023-11-07T17:28:39.849Z,72.45
2023-11-07T17:38:43.497Z,73.16
2023-11-07T17:48:46.888Z,73.30
2023-11-07T17:58:53.284Z,73.70
2023-11-07T18:08:56.925Z,74.05
2023-11-07T18:19:00.629Z,74.44
2023-11-07T18:29:04.730Z,74.76
2023-11-07T18:39:08.313Z,75.00
2023-11-07T18:49:13.591Z,75.36
2023-11-07T18:59:30.741Z,75.49
2023-11-07T19:09:38.936Z,75.78
2023-11-07T19:19:42.312Z,76.09
2023-11-07T19:29:46.546Z,76.46
2023-11-07T19:39:51.159Z,76.96
2023-11-07T19:49:54.754Z,77.45
2023-11-07T19:59:58.818Z,77.67
2023-11-07T20:10:01.514Z,77.94
2023-11-07T20:20:09.931Z,78.19
2023-11-07T20:30:13.454Z,78.38
2023-11-07T20:40:17.247Z,78.76
2023-11-07T20:50:20.486Z,79.29
2023-11-07T21:00:24.382Z,79.19
2023-11-07T21:10:28.219Z,79.50
2023-11-07T21:20:31.251Z,79.64
2023-11-07T21:30:34.726Z,80.15
2023-11-07T21:40:37.614Z,80.51
2023-11-07T21:50:41.390Z,80.61
2023-11-07T22:10:48.523Z,80.74
2023-11-07T22:20:51.948Z,81.14
2023-11-07T22:30:56.036Z,81.45
2023-11-07T22:41:00.250Z,82.02
2023-11-07T22:51:04.112Z,82.12
2023-11-07T23:01:07.921Z,82.30
2023-11-07T23:11:10.676Z,82.55
2023-11-07T23:21:14.450Z,82.74
2023-11-07T23:31:18.076Z,82.95
2023-11-07T23:41:21.804Z,83.31
2023-11-07T23:51:25.415Z,83.55
